Time;durP1;ratioP1;P1;durP2;ratioP2;P2;SDS_P1;SDS_P2;PMS_P1;PMS_P2;Temp;Humidity;BMP_temperature;BMP_pressure;BME280_temperature;BME280_humidity;BME280_pressure;Samples;Min_cycle;Max_cycle;Signal;HPM_P1;HPM_P2
2023/05/29 00:00:56;;;;;;;10.27;4.57;;;;;16.20;96904.00;;;;4955980;28;20203;-71
2023/05/29 00:03:46;;;;;;;7.00;4.90;;;;;15.90;96899.00;;;;4958166;28;20199;-72
2023/05/29 00:06:36;;;;;;;7.97;4.97;;;;;16.30;96902.00;;;;4964667;28;20386;-71
2023/05/29 00:09:25;;;;;;;6.70;4.47;;;;;16.30;96898.00;;;;4970656;28;20214;-71
2023/05/29 00:12:14;;;;;;;8.67;5.10;;;;;16.30;96898.00;;;;4965853;28;20562;-70
2023/05/29 00:15:05;;;;;;;9.73;4.13;;;;;15.80;96896.00;;;;4958143;28;20658;-70
2023/05/29 00:17:54;;;;;;;7.80;4.83;;;;;15.60;96897.00;;;;4958567;28;20207;-71
2023/05/29 00:20:44;;;;;;;6.77;4.70;;;;;15.50;96888.00;;;;4969335;28;20226;-71
2023/05/29 00:23:33;;;;;;;7.10;4.63;;;;;15.50;96888.00;;;;4969675;28;20195;-70
2023/05/29 00:26:22;;;;;;;5.87;4.33;;;;;15.50;96891.00;;;;4968108;28;20227;-70
2023/05/29 00:29:11;;;;;;;6.60;4.30;;;;;15.30;96900.00;;;;4966443;28;20203;-70
2023/05/29 00:32:00;;;;;;;7.37;5.07;;;;;14.90;96880.00;;;;4959702;28;20216;-70
2023/05/29 00:34:50;;;;;;;8.53;4.40;;;;;14.90;96886.00;;;;4961751;28;20234;-70
2023/05/29 00:37:40;;;;;;;9.77;5.60;;;;;15.30;96886.00;;;;4966842;28;20212;-71
2023/05/29 00:40:29;;;;;;;10.07;5.20;;;;;15.20;96888.00;;;;4955854;28;20211;-71
2023/05/29 00:43:18;;;;;;;7.53;5.10;;;;;15.00;96884.00;;;;4962944;28;20208;-70
2023/05/29 00:46:07;;;;;;;6.00;4.83;;;;;15.10;96886.00;;;;4960280;28;20235;-70
2023/05/29 00:48:57;;;;;;;7.73;5.53;;;;;15.30;96885.00;;;;4948654;28;20682;-71
2023/05/29 00:51:46;;;;;;;7.37;5.20;;;;;15.30;96880.00;;;;4966248;28;20586;-71
2023/05/29 00:54:37;;;;;;;6.37;4.50;;;;;15.00;96881.00;;;;4962961;28;20234;-71
2023/05/29 00:57:26;;;;;;;8.07;5.07;;;;;14.70;96871.00;;;;4970387;28;20199;-71
2023/05/29 01:00:16;;;;;;;6.87;4.67;;;;;14.60;96875.00;;;;4954622;28;20211;-70
2023/05/29 01:03:07;;;;;;;6.27;4.80;;;;;14.70;96883.00;;;;4953325;28;20207;-70
2023/05/29 01:05:57;;;;;;;6.70;5.27;;;;;14.60;96879.00;;;;4957701;28;20278;-71
2023/05/29 01:08:46;;;;;;;6.73;4.37;;;;;13.90;96877.00;;;;4962527;28;20200;-69
2023/05/29 01:11:42;;;;;;;5.10;4.60;;;;;13.90;96867.00;;;;4963709;28;20210;-71
2023/05/29 01:14:36;;;;;;;7.43;4.83;;;;;14.10;96878.00;;;;4968120;28;20223;-70
2023/05/29 01:17:29;;;;;;;5.90;4.60;;;;;14.00;96877.00;;;;4958116;28;20212;-69
2023/05/29 01:20:28;;;;;;;8.90;5.53;;;;;14.00;96877.00;;;;4963392;28;20246;-72
2023/05/29 01:23:38;;;;;;;8.63;5.63;;;;;14.00;96882.00;;;;4959684;28;20221;-73
2023/05/29 01:26:54;;;;;;;9.27;5.23;;;;;14.60;96885.00;;;;4954909;28;20227;-70
2023/05/29 01:29:44;;;;;;;12.17;4.83;;;;;14.70;96890.00;;;;4960146;28;20211;-71
2023/05/29 01:32:33;;;;;;;5.57;4.47;;;;;14.60;96885.00;;;;4961897;28;20199;-70
2023/05/29 01:35:22;;;;;;;6.23;4.87;;;;;14.70;96873.00;;;;4971466;28;20302;-71
2023/05/29 01:38:11;;;;;;;8.70;5.57;;;;;14.50;96887.00;;;;4967575;28;20560;-72
2023/05/29 01:41:00;;;;;;;8.13;5.83;;;;;14.50;96875.00;;;;4972605;28;20214;-71
2023/05/29 01:43:51;;;;;;;6.27;4.40;;;;;14.50;96874.00;;;;4968131;28;20583;-71
2023/05/29 01:46:41;;;;;;;5.47;4.50;;;;;14.20;96866.00;;;;4968578;28;20227;-71
2023/05/29 01:49:30;;;;;;;6.63;3.97;;;;;14.30;96875.00;;;;4965771;28;20208;-71
2023/05/29 01:52:19;;;;;;;9.30;5.20;;;;;14.00;96869.00;;;;4973038;28;20668;-71
2023/05/29 01:55:09;;;;;;;7.43;5.00;;;;;13.40;96862.00;;;;4969582;28;20618;-71
2023/05/29 01:57:58;;;;;;;7.33;5.13;;;;;13.70;96869.00;;;;4960922;28;20243;-72
2023/05/29 02:00:49;;;;;;;8.83;4.63;;;;;13.40;96857.00;;;;4961117;28;20207;-70
2023/05/29 02:03:38;;;;;;;6.43;5.20;;;;;13.70;96861.00;;;;4960897;28;20215;-71
2023/05/29 02:06:27;;;;;;;10.17;6.53;;;;;13.70;96856.00;;;;4962198;28;20619;-71
2023/05/29 02:09:18;;;;;;;12.20;5.03;;;;;13.10;96849.00;;;;4948286;28;20200;-70
2023/05/29 02:12:08;;;;;;;7.27;4.67;;;;;13.30;96851.00;;;;4964087;28;20211;-70
2023/05/29 02:14:57;;;;;;;6.37;4.70;;;;;13.20;96846.00;;;;4961441;28;20231;-70
2023/05/29 02:17:47;;;;;;;8.17;5.63;;;;;13.40;96834.00;;;;4963278;28;20205;-70
2023/05/29 02:20:36;;;;;;;8.37;5.90;;;;;13.30;96841.00;;;;4968086;28;20273;-70
2023/05/29 02:23:25;;;;;;;7.40;5.33;;;;;13.20;96846.00;;;;4970676;28;20210;-71
2023/05/29 02:26:15;;;;;;;12.70;5.93;;;;;12.80;96840.00;;;;4963146;28;20246;-70
2023/05/29 02:29:06;;;;;;;6.53;5.13;;;;;13.30;96847.00;;;;4971835;28;20202;-70
2023/05/29 02:31:55;;;;;;;10.33;5.07;;;;;13.40;96841.00;;;;4953729;28;20212;-69
2023/05/29 02:34:46;;;;;;;7.00;4.87;;;;;13.30;96835.00;;;;4963607;28;20228;-71
2023/05/29 02:37:35;;;;;;;9.47;5.73;;;;;13.00;96837.00;;;;4951010;28;20211;-72
2023/05/29 02:40:24;;;;;;;7.27;5.47;;;;;13.20;96843.00;;;;4951698;28;20716;-72
2023/05/29 02:43:15;;;;;;;10.23;5.80;;;;;12.80;96834.00;;;;4955078;28;20203;-71
2023/05/29 02:46:04;;;;;;;7.07;5.40;;;;;12.60;96833.00;;;;4954024;28;20701;-70
2023/05/29 02:48:53;;;;;;;8.50;6.10;;;;;12.10;96840.00;;;;4955235;28;20254;-69
2023/05/29 02:51:43;;;;;;;8.23;5.53;;;;;12.90;96845.00;;;;4969039;28;20400;-70
2023/05/29 02:54:32;;;;;;;8.90;5.73;;;;;13.30;96842.00;;;;4962466;28;20610;-70
2023/05/29 02:57:21;;;;;;;8.13;5.63;;;;;13.30;96844.00;;;;4966617;28;20200;-70
2023/05/29 03:00:12;;;;;;;11.83;5.50;;;;;13.40;96842.00;;;;4951569;28;20708;-72
2023/05/29 03:03:03;;;;;;;11.57;6.23;;;;;13.70;96848.00;;;;4969035;28;20199;-71
2023/05/29 03:05:52;;;;;;;7.70;5.93;;;;;13.50;96838.00;;;;4959038;28;20659;-70
2023/05/29 03:08:44;;;;;;;7.60;5.50;;;;;13.20;96839.00;;;;4949157;28;20202;-71
2023/05/29 03:11:35;;;;;;;13.83;6.27;;;;;12.60;96846.00;;;;4969017;28;20262;-69
2023/05/29 03:14:24;;;;;;;6.00;5.40;;;;;12.90;96851.00;;;;4957104;28;20203;-70
2023/05/29 03:17:13;;;;;;;8.97;5.63;;;;;13.30;96853.00;;;;4964879;28;20218;-73
2023/05/29 03:20:05;;;;;;;10.43;6.23;;;;;13.50;96859.00;;;;4971541;28;20208;-70
2023/05/29 03:22:54;;;;;;;10.03;5.90;;;;;13.60;96850.00;;;;4959106;28;20207;-71
2023/05/29 03:25:45;;;;;;;10.77;5.87;;;;;13.40;96843.00;;;;4957682;28;20215;-71
2023/05/29 03:28:34;;;;;;;9.53;5.00;;;;;13.50;96852.00;;;;4961815;28;20200;-71
2023/05/29 03:31:23;;;;;;;7.60;5.07;;;;;13.50;96853.00;;;;4951267;28;20585;-71
2023/05/29 03:34:13;;;;;;;7.83;5.07;;;;;13.30;96847.00;;;;4953170;28;20385;-71
2023/05/29 03:37:03;;;;;;;8.77;4.90;;;;;13.20;96849.00;;;;4959471;28;20207;-70
2023/05/29 03:39:52;;;;;;;13.20;6.63;;;;;12.60;96846.00;;;;4958199;28;20211;-69
2023/05/29 03:42:42;;;;;;;7.93;5.80;;;;;12.30;96843.00;;;;4966410;28;20207;-69
2023/05/29 03:45:31;;;;;;;9.30;7.07;;;;;12.60;96854.00;;;;4962038;28;20393;-70
2023/05/29 03:48:20;;;;;;;10.18;7.00;;;;;12.80;96845.00;;;;4949236;28;20389;-70
2023/05/29 03:51:10;;;;;;;7.57;5.70;;;;;12.70;96853.00;;;;4957110;28;20211;-70
2023/05/29 03:53:59;;;;;;;9.77;5.33;;;;;12.80;96842.00;;;;4952422;28;20210;-70
2023/05/29 03:56:48;;;;;;;8.43;5.30;;;;;13.00;96853.00;;;;4953322;28;20747;-70
2023/05/29 03:59:38;;;;;;;9.77;5.27;;;;;13.40;96847.00;;;;4952516;28;20883;-72
2023/05/29 04:02:27;;;;;;;7.47;4.37;;;;;13.50;96857.00;;;;4959134;28;20211;-70
2023/05/29 04:05:16;;;;;;;11.17;6.17;;;;;13.10;96853.00;;;;4966629;28;20723;-71
2023/05/29 04:08:08;;;;;;;5.57;4.63;;;;;13.40;96859.00;;;;4956348;28;20665;-70
2023/05/29 04:11:03;;;;;;;13.17;5.53;;;;;13.40;96865.00;;;;4968805;28;20199;-69
2023/05/29 04:13:52;;;;;;;11.40;5.60;;;;;13.60;96852.00;;;;4964118;28;20226;-70
2023/05/29 04:16:43;;;;;;;6.13;4.93;;;;;13.30;96853.00;;;;4969282;28;20234;-72
2023/05/29 04:19:32;;;;;;;11.87;5.67;;;;;13.10;96859.00;;;;4960793;28;20226;-70
2023/05/29 04:22:21;;;;;;;10.87;5.13;;;;;13.30;96861.00;;;;4958420;28;20195;-70
2023/05/29 04:25:10;;;;;;;8.20;5.90;;;;;13.60;96861.00;;;;4966110;28;20685;-69
2023/05/29 04:28:02;;;;;;;10.23;5.53;;;;;13.60;96859.00;;;;4966432;28;20199;-71
2023/05/29 04:30:51;;;;;;;9.40;5.23;;;;;12.70;96855.00;;;;4964096;28;20203;-69
2023/05/29 04:33:44;;;;;;;8.10;5.60;;;;;13.20;96863.00;;;;4960672;28;20223;-71
2023/05/29 04:36:37;;;;;;;9.33;5.80;;;;;13.30;96866.00;;;;4957648;23;20247;-81
2023/05/29 04:39:26;;;;;;;8.03;5.57;;;;;13.30;96864.00;;;;4952557;29;20203;-81
2023/05/29 04:42:15;;;;;;;10.53;6.13;;;;;13.50;96865.00;;;;4930506;29;20228;-81
2023/05/29 04:45:05;;;;;;;9.97;5.33;;;;;13.80;96867.00;;;;4934384;29;20208;-83
2023/05/29 04:47:55;;;;;;;7.40;5.33;;;;;13.80;96871.00;;;;4933244;29;20212;-80
2023/05/29 04:50:46;;;;;;;7.03;5.47;;;;;14.10;96871.00;;;;4932317;29;20201;-80
2023/05/29 04:53:35;;;;;;;10.97;6.67;;;;;14.30;96879.00;;;;4933056;29;20227;-80
2023/05/29 04:56:24;;;;;;;10.83;5.77;;;;;14.20;96881.00;;;;4930279;29;20217;-81
2023/05/29 04:59:13;;;;;;;8.73;4.90;;;;;14.50;96886.00;;;;4937224;29;20224;-81
2023/05/29 05:02:02;;;;;;;8.43;6.07;;;;;14.50;96885.00;;;;4933158;29;20224;-81
2023/05/29 05:04:51;;;;;;;17.00;6.87;;;;;14.60;96886.00;;;;4938374;29;20205;-81
2023/05/29 05:07:41;;;;;;;7.33;5.67;;;;;14.80;96886.00;;;;4937974;29;20631;-81
2023/05/29 05:10:30;;;;;;;8.37;5.77;;;;;15.20;96881.00;;;;4938392;29;20219;-82
2023/05/29 05:13:20;;;;;;;7.80;6.20;;;;;15.30;96879.00;;;;4937995;29;20222;-82
2023/05/29 05:16:09;;;;;;;7.47;5.60;;;;;15.40;96882.00;;;;4936782;29;20228;-81
2023/05/29 05:18:58;;;;;;;9.30;7.03;;;;;15.40;96883.00;;;;4937123;29;20205;-81
2023/05/29 05:21:47;;;;;;;9.10;6.03;;;;;15.50;96879.00;;;;4936187;29;20606;-81
2023/05/29 05:24:37;;;;;;;7.17;5.10;;;;;15.60;96886.00;;;;4937604;29;20211;-81
2023/05/29 05:27:26;;;;;;;9.60;5.53;;;;;15.60;96880.00;;;;4936093;29;20209;-82
2023/05/29 05:30:16;;;;;;;9.20;6.93;;;;;15.20;96885.00;;;;4933805;29;20208;-81
2023/05/29 05:33:05;;;;;;;7.50;6.30;;;;;15.20;96885.00;;;;4936904;29;20215;-81
2023/05/29 05:35:54;;;;;;;7.17;5.40;;;;;15.60;96894.00;;;;4936921;29;20232;-81
2023/05/29 05:38:43;;;;;;;7.73;6.03;;;;;15.90;96895.00;;;;4937831;29;20205;-81
2023/05/29 05:41:33;;;;;;;11.63;6.07;;;;;16.40;96896.00;;;;4936657;29;20596;-81
2023/05/29 05:44:22;;;;;;;8.60;5.33;;;;;16.50;96897.00;;;;4937079;29;20208;-81
2023/05/29 05:47:12;;;;;;;7.20;5.80;;;;;16.80;96896.00;;;;4933166;29;20211;-81
2023/05/29 05:50:01;;;;;;;11.20;6.47;;;;;16.70;96893.00;;;;4935852;29;20232;-81
2023/05/29 05:52:50;;;;;;;10.27;6.30;;;;;16.60;96899.00;;;;4938189;28;20217;-82
2023/05/29 05:55:39;;;;;;;7.83;5.53;;;;;16.80;96894.00;;;;4937711;28;20217;-81
2023/05/29 05:58:30;;;;;;;13.23;6.77;;;;;17.10;96890.00;;;;4936697;29;20205;-81
2023/05/29 06:01:20;;;;;;;11.90;5.80;;;;;17.20;96897.00;;;;4931342;29;20224;-81
2023/05/29 06:04:09;;;;;;;9.07;6.33;;;;;17.50;96903.00;;;;4928887;29;20890;-81
2023/05/29 06:06:58;;;;;;;8.30;6.33;;;;;17.20;96906.00;;;;4932431;29;20204;-81
2023/05/29 06:09:47;;;;;;;9.40;6.37;;;;;17.70;96899.00;;;;4936313;29;20204;-81
2023/05/29 06:12:36;;;;;;;8.27;6.13;;;;;17.70;96889.00;;;;4937035;29;20229;-81
2023/05/29 06:15:26;;;;;;;10.87;7.00;;;;;18.00;96896.00;;;;4932994;29;20204;-81
2023/05/29 06:18:16;;;;;;;10.43;6.00;;;;;18.30;96907.00;;;;4938073;28;20235;-81
2023/05/29 06:21:07;;;;;;;9.50;5.93;;;;;17.90;96906.00;;;;4935538;29;20234;-82
2023/05/29 06:23:56;;;;;;;10.70;6.33;;;;;18.20;96909.00;;;;4937416;29;20213;-81
2023/05/29 06:26:45;;;;;;;8.80;6.07;;;;;18.80;96910.00;;;;4946314;29;20207;-80
2023/05/29 06:29:34;;;;;;;8.13;6.23;;;;;19.00;96911.00;;;;4940034;29;20205;-80
2023/05/29 06:32:25;;;;;;;8.77;6.47;;;;;19.30;96905.00;;;;4945730;28;20229;-79
2023/05/29 06:35:15;;;;;;;9.63;6.13;;;;;19.40;96907.00;;;;4944533;29;20216;-81
2023/05/29 06:38:04;;;;;;;9.60;6.33;;;;;19.40;96914.00;;;;4941212;29;20221;-81
2023/05/29 06:40:53;;;;;;;9.67;6.40;;;;;19.60;96912.00;;;;4935410;29;20212;-81
2023/05/29 06:43:42;;;;;;;10.37;7.20;;;;;19.90;96918.00;;;;4934762;29;20201;-81
2023/05/29 06:46:32;;;;;;;11.60;6.73;;;;;19.30;96906.00;;;;4935307;29;20211;-81
2023/05/29 06:49:22;;;;;;;15.20;7.83;;;;;19.70;96908.00;;;;4933102;29;20200;-81
2023/05/29 06:52:11;;;;;;;12.30;7.57;;;;;19.20;96914.00;;;;4935161;29;20232;-80
2023/05/29 06:55:01;;;;;;;13.40;7.40;;;;;20.00;96922.00;;;;4936937;29;20209;-81
2023/05/29 06:57:50;;;;;;;10.10;6.43;;;;;20.40;96914.00;;;;4935275;29;20224;-80
2023/05/29 07:00:39;;;;;;;13.07;8.70;;;;;20.80;96931.00;;;;4935758;29;20220;-80
2023/05/29 07:03:28;;;;;;;12.37;9.30;;;;;20.60;96913.00;;;;4934523;29;20227;-81
2023/05/29 07:06:19;;;;;;;11.00;8.33;;;;;20.70;96916.00;;;;4929367;29;20211;-81
2023/05/29 07:09:08;;;;;;;12.60;7.97;;;;;21.00;96919.00;;;;4931413;29;20204;-81
2023/05/29 07:11:57;;;;;;;9.30;7.53;;;;;21.50;96918.00;;;;4931383;29;20612;-80
2023/05/29 07:14:48;;;;;;;12.23;8.33;;;;;21.40;96918.00;;;;4931324;29;20223;-81
2023/05/29 07:17:37;;;;;;;13.27;8.67;;;;;21.40;96906.00;;;;4929157;29;20578;-81
2023/05/29 07:20:26;;;;;;;14.03;8.70;;;;;21.70;96910.00;;;;4927584;29;20671;-81
2023/05/29 07:23:16;;;;;;;12.77;8.00;;;;;22.10;96918.00;;;;4927633;29;20717;-81
2023/05/29 07:26:05;;;;;;;12.40;8.53;;;;;22.10;96914.00;;;;4925576;29;20201;-81
2023/05/29 07:28:54;;;;;;;13.07;8.23;;;;;22.00;96910.00;;;;4925974;29;20206;-81
2023/05/29 07:31:44;;;;;;;12.83;8.23;;;;;22.40;96906.00;;;;4930512;29;20785;-79
2023/05/29 07:34:33;;;;;;;11.73;7.87;;;;;22.80;96913.00;;;;4930053;29;20592;-80
2023/05/29 07:37:22;;;;;;;13.33;7.07;;;;;22.90;96908.00;;;;4926669;29;20232;-79
2023/05/29 07:40:12;;;;;;;15.27;8.80;;;;;23.00;96911.00;;;;4931489;29;20197;-80
2023/05/29 07:43:01;;;;;;;11.87;7.33;;;;;23.40;96911.00;;;;4918698;29;20217;-80
2023/05/29 07:45:51;;;;;;;9.50;6.80;;;;;23.70;96913.00;;;;4932448;29;20205;-81
2023/05/29 07:48:40;;;;;;;11.87;7.50;;;;;23.90;96907.00;;;;4930552;28;20204;-80
2023/05/29 07:51:29;;;;;;;10.37;7.77;;;;;24.10;96900.00;;;;4926603;29;20613;-81
2023/05/29 07:54:20;;;;;;;10.63;7.17;;;;;24.30;96897.00;;;;4928870;29;20209;-79
2023/05/29 07:57:11;;;;;;;10.17;7.77;;;;;24.40;96899.00;;;;4927227;29;20731;-80
2023/05/29 08:00:01;;;;;;;9.20;6.63;;;;;24.70;96899.00;;;;4930704;29;20200;-80
2023/05/29 08:02:51;;;;;;;11.67;6.83;;;;;24.90;96897.00;;;;4924981;29;20225;-80
2023/05/29 08:05:40;;;;;;;12.53;7.60;;;;;25.00;96893.00;;;;4931608;29;20582;-80
2023/05/29 08:08:30;;;;;;;10.43;6.30;;;;;25.20;96893.00;;;;4925279;28;20202;-80
2023/05/29 08:11:19;;;;;;;10.50;6.93;;;;;25.20;96900.00;;;;4920244;29;20277;-81
2023/05/29 08:14:09;;;;;;;10.10;6.83;;;;;25.40;96896.00;;;;4933513;29;20198;-80
2023/05/29 08:16:58;;;;;;;7.90;6.10;;;;;25.60;96895.00;;;;4923335;29;20211;-80
2023/05/29 08:19:47;;;;;;;6.17;4.60;;;;;25.70;96898.00;;;;4932085;29;20208;-80
2023/05/29 08:22:36;;;;;;;8.77;4.70;;;;;25.70;96900.00;;;;4930525;29;20235;-81
2023/05/29 08:25:26;;;;;;;10.20;4.83;;;;;25.50;96895.00;;;;4926709;29;20209;-80
2023/05/29 08:28:15;;;;;;;9.97;4.77;;;;;25.50;96895.00;;;;4920351;29;20214;-81
2023/05/29 08:31:06;;;;;;;6.37;4.90;;;;;25.30;96879.00;;;;4926434;29;20231;-81
2023/05/29 08:33:56;;;;;;;8.80;5.30;;;;;26.20;96889.00;;;;4932758;29;20216;-80
2023/05/29 08:36:45;;;;;;;7.60;5.17;;;;;25.80;96882.00;;;;4928556;29;20224;-80
2023/05/29 08:39:34;;;;;;;7.70;6.03;;;;;26.00;96879.00;;;;4929069;29;20201;-81
2023/05/29 08:42:26;;;;;;;8.93;5.13;;;;;25.00;96875.00;;;;4934191;29;20242;-81
2023/05/29 08:45:15;;;;;;;9.13;4.90;;;;;26.20;96882.00;;;;4938150;29;20216;-82
2023/05/29 08:48:06;;;;;;;7.57;5.07;;;;;26.90;96878.00;;;;4924774;29;20213;-82
2023/05/29 08:50:57;;;;;;;7.63;4.63;;;;;27.00;96879.00;;;;4926814;29;20399;-81
2023/05/29 08:53:46;;;;;;;6.00;4.70;;;;;26.30;96871.00;;;;4930467;29;20210;-82
2023/05/29 08:56:36;;;;;;;9.33;5.23;;;;;26.90;96868.00;;;;4939499;29;20212;-81
2023/05/29 08:59:27;;;;;;;8.33;6.27;;;;;27.40;96864.00;;;;4934208;28;20229;-82
2023/05/29 09:02:16;;;;;;;9.23;4.40;;;;;26.80;96862.00;;;;4934868;29;20232;-81
2023/05/29 09:05:09;;;;;;;6.10;4.17;;;;;27.50;96867.00;;;;4925070;29;20204;-82
2023/05/29 09:07:59;;;;;;;6.07;4.60;;;;;26.30;96857.00;;;;4933081;29;20201;-81
2023/05/29 09:10:48;;;;;;;7.30;4.63;;;;;26.30;96859.00;;;;4931024;29;20204;-81
2023/05/29 09:13:37;;;;;;;10.53;5.03;;;;;27.20;96852.00;;;;4930943;29;20212;-80
2023/05/29 09:16:26;;;;;;;7.67;5.10;;;;;27.00;96855.00;;;;4932422;29;20701;-80
2023/05/29 09:19:16;;;;;;;10.17;4.07;;;;;26.90;96846.00;;;;4935480;29;20244;-82
2023/05/29 09:22:08;;;;;;;7.20;4.40;;;;;27.60;96857.00;;;;4927385;29;20581;-80
2023/05/29 09:24:57;;;;;;;8.47;4.17;;;;;28.40;96860.00;;;;4934743;29;20217;-82
2023/05/29 09:27:46;;;;;;;7.10;5.07;;;;;28.10;96852.00;;;;4932204;29;20211;-82
2023/05/29 09:30:40;;;;;;;7.43;4.50;;;;;26.30;96846.00;;;;4935577;29;20470;-82
2023/05/29 09:33:29;;;;;;;5.40;4.43;;;;;26.90;96845.00;;;;4933713;29;20215;-79
2023/05/29 09:36:25;;;;;;;6.30;4.53;;;;;27.20;96844.00;;;;4929556;29;20218;-82
2023/05/29 09:39:16;;;;;;;7.20;4.30;;;;;27.30;96842.00;;;;4931794;29;20222;-82
2023/05/29 09:42:06;;;;;;;7.70;3.87;;;;;28.50;96849.00;;;;4936621;29;20251;-82
2023/05/29 09:44:56;;;;;;;4.63;3.73;;;;;29.40;96849.00;;;;4938837;28;20214;-82
2023/05/29 09:47:45;;;;;;;6.13;4.13;;;;;29.60;96852.00;;;;4931762;29;20213;-82
2023/05/29 09:50:35;;;;;;;9.50;4.33;;;;;29.40;96849.00;;;;4935775;29;20691;-82
2023/05/29 09:53:26;;;;;;;5.83;4.33;;;;;29.60;96842.00;;;;4934123;29;20217;-82
2023/05/29 09:56:17;;;;;;;6.93;4.73;;;;;29.70;96846.00;;;;4937757;28;20212;-82
2023/05/29 09:59:06;;;;;;;6.43;4.23;;;;;30.40;96844.00;;;;4932913;29;20612;-82
2023/05/29 10:02:03;;;;;;;8.37;4.43;;;;;30.20;96838.00;;;;4933086;29;20232;-82
2023/05/29 10:04:52;;;;;;;5.93;4.13;;;;;30.10;96839.00;;;;4925925;29;20271;-82
2023/05/29 10:07:47;;;;;;;6.13;4.93;;;;;30.40;96839.00;;;;4937120;29;20198;-82
2023/05/29 10:10:36;;;;;;;4.83;4.10;;;;;28.90;96840.00;;;;4934621;29;20213;-82
2023/05/29 10:13:28;;;;;;;7.80;4.37;;;;;29.60;96858.00;;;;4933830;29;20615;-82
2023/05/29 10:16:20;;;;;;;8.60;4.70;;;;;30.20;96847.00;;;;4924869;29;20594;-82
2023/05/29 10:19:13;;;;;;;6.30;5.00;;;;;29.00;96870.00;;;;4936987;29;20272;-82
2023/05/29 10:22:03;;;;;;;6.93;4.47;;;;;27.00;96855.00;;;;4925100;29;20235;-82
2023/05/29 10:24:53;;;;;;;6.33;4.17;;;;;27.40;96848.00;;;;4933233;29;20208;-83
2023/05/29 10:27:43;;;;;;;6.57;4.73;;;;;29.00;96828.00;;;;4933893;29;20222;-83
2023/05/29 10:30:37;;;;;;;8.23;4.80;;;;;28.60;96823.00;;;;4931011;29;20200;-82
2023/05/29 10:33:39;;;;;;;9.37;4.70;;;;;27.40;96858.00;;;;4934588;29;20685;-82
2023/05/29 10:36:32;;;;;;;10.00;5.70;;;;;27.40;96865.00;;;;4928350;29;20238;-82
2023/05/29 10:39:22;;;;;;;6.53;5.13;;;;;28.10;96817.00;;;;4938400;28;20240;-82
2023/05/29 10:42:41;;;;;;;9.27;4.63;;;;;29.20;96809.00;;;;4925157;29;20231;-83
2023/05/29 10:45:53;;;;;;;12.43;4.97;;;;;30.30;96819.00;;;;4936201;29;20218;-82
2023/05/29 10:48:43;;;;;;;5.97;4.20;;;;;30.80;96820.00;;;;4934019;28;20199;-82
2023/05/29 10:51:33;;;;;;;5.67;3.90;;;;;31.10;96812.00;;;;4935333;29;20955;-82
2023/05/29 10:54:25;;;;;;;8.10;5.10;;;;;30.60;96825.00;;;;4943987;29;20193;-81
2023/05/29 10:57:14;;;;;;;6.37;4.57;;;;;31.00;96822.00;;;;4939458;29;20206;-81
2023/05/29 11:00:13;;;;;;;8.23;4.93;;;;;29.80;96819.00;;;;4943417;29;20226;-81
2023/05/29 11:03:06;;;;;;;7.30;3.70;;;;;28.50;96810.00;;;;4947294;29;20205;-80
2023/05/29 11:05:58;;;;;;;9.03;4.07;;;;;27.40;96810.00;;;;4947236;29;20571;-81
2023/05/29 11:08:48;;;;;;;7.60;4.67;;;;;26.60;96807.00;;;;4929593;29;20212;-81
2023/05/29 11:11:40;;;;;;;6.73;4.23;;;;;28.70;96797.00;;;;4928472;29;20639;-81
2023/05/29 11:14:30;;;;;;;6.63;4.33;;;;;28.10;96849.00;;;;4931036;29;20216;-81
2023/05/29 11:17:32;;;;;;;7.20;4.23;;;;;29.00;96846.00;;;;4921362;29;20213;-81
2023/05/29 11:20:38;;;;;;;8.17;4.73;;;;;30.50;96850.00;;;;4930889;29;20238;-81
2023/05/29 11:23:33;;;;;;;5.57;4.17;;;;;29.80;96849.00;;;;4929593;29;20214;-81
2023/05/29 11:26:28;;;;;;;6.63;4.60;;;;;30.40;96793.00;;;;4932983;29;20208;-81
2023/05/29 11:29:17;;;;;;;7.17;4.50;;;;;31.60;96842.00;;;;4928378;29;20216;-81
2023/05/29 11:32:09;;;;;;;9.57;5.30;;;;;31.00;96801.00;;;;4928512;29;20835;-82
2023/05/29 11:34:59;;;;;;;7.60;4.80;;;;;32.30;96805.00;;;;4931371;29;20210;-81
2023/05/29 11:37:50;;;;;;;6.33;5.23;;;;;32.70;96807.00;;;;4933890;29;20211;-81
2023/05/29 11:40:39;;;;;;;6.10;5.40;;;;;31.30;96794.00;;;;4932659;29;20243;-81
2023/05/29 11:43:28;;;;;;;8.23;4.43;;;;;29.80;96783.00;;;;4932373;29;20218;-81
2023/05/29 11:46:21;;;;;;;7.63;4.87;;;;;31.80;96788.00;;;;4931872;29;20210;-81
2023/05/29 11:49:10;;;;;;;10.43;5.33;;;;;32.00;96786.00;;;;4928543;29;20594;-82
2023/05/29 11:52:08;;;;;;;8.30;5.17;;;;;31.10;96790.00;;;;4929532;29;20254;-81
2023/05/29 11:55:08;;;;;;;6.70;5.17;;;;;30.00;96785.00;;;;4921428;29;20254;-82
2023/05/29 11:57:59;;;;;;;7.87;5.13;;;;;31.50;96785.00;;;;4933296;29;20214;-82
2023/05/29 12:00:50;;;;;;;5.43;4.67;;;;;28.80;96779.00;;;;4931231;29;20231;-81
2023/05/29 12:03:40;;;;;;;5.57;4.20;;;;;29.00;96773.00;;;;4931999;28;20213;-82
2023/05/29 12:06:34;;;;;;;5.77;5.10;;;;;29.40;96780.00;;;;4933318;29;20218;-82
2023/05/29 12:09:29;;;;;;;9.40;4.90;;;;;30.90;96782.00;;;;4927851;29;20213;-81
2023/05/29 12:12:20;;;;;;;7.27;4.90;;;;;30.90;96785.00;;;;4930730;29;20232;-81
2023/05/29 12:15:10;;;;;;;6.37;4.60;;;;;28.60;96769.00;;;;4920632;29;20204;-84
2023/05/29 12:18:00;;;;;;;7.67;4.87;;;;;31.30;96773.00;;;;4927166;29;20222;-81
2023/05/29 12:20:50;;;;;;;8.77;4.60;;;;;29.90;96770.00;;;;4927526;29;20245;-82
2023/05/29 12:23:40;;;;;;;6.93;4.37;;;;;27.70;96825.00;;;;4926877;29;20223;-80
2023/05/29 12:26:32;;;;;;;6.73;4.90;;;;;26.60;96767.00;;;;4927050;29;20210;-80
2023/05/29 12:29:31;;;;;;;5.97;4.67;;;;;29.70;96756.00;;;;4928800;29;20201;-81
2023/05/29 12:32:20;;;;;;;6.73;4.33;;;;;30.70;96758.00;;;;4923677;29;20230;-82
2023/05/29 12:35:14;;;;;;;7.03;4.77;;;;;32.20;96769.00;;;;4923222;29;20207;-81
2023/05/29 12:38:08;;;;;;;8.27;4.70;;;;;31.40;96774.00;;;;4928223;29;20212;-82
2023/05/29 12:40:57;;;;;;;6.03;5.13;;;;;31.60;96759.00;;;;4926572;29;20240;-82
2023/05/29 12:43:46;;;;;;;7.70;5.55;;;;;32.00;96744.00;;;;4924472;29;20211;-82
2023/05/29 12:46:42;;;;;;;5.27;4.27;;;;;32.00;96792.00;;;;4928520;29;20211;-82
2023/05/29 12:49:36;;;;;;;7.78;4.88;;;;;32.40;96756.00;;;;4927664;29;20231;-82
2023/05/29 12:52:25;;;;;;;6.88;4.60;;;;;31.20;96812.00;;;;4924815;29;20236;-82
2023/05/29 12:55:14;;;;;;;6.85;4.63;;;;;30.40;96742.00;;;;4921437;29;20201;-85
2023/05/29 12:58:03;;;;;;;6.43;4.97;;;;;29.90;96746.00;;;;4930057;29;20218;-82
2023/05/29 13:00:56;;;;;;;6.18;4.35;;;;;32.50;96742.00;;;;4925474;29;20236;-82
2023/05/29 13:03:47;;;;;;;5.22;4.20;;;;;34.10;96748.00;;;;4927904;29;20598;-82
2023/05/29 13:06:36;;;;;;;5.47;4.22;;;;;34.00;96783.00;;;;4930005;29;20203;-81
2023/05/29 13:09:25;;;;;;;8.50;4.35;;;;;33.50;96744.00;;;;4927276;29;20208;-81
2023/05/29 13:12:14;;;;;;;5.97;5.15;;;;;33.60;96813.00;;;;4933165;29;20222;-82
2023/05/29 13:15:04;;;;;;;8.63;4.65;;;;;32.00;96814.00;;;;4925438;29;20207;-81
2023/05/29 13:17:54;;;;;;;9.02;4.22;;;;;31.60;96813.00;;;;4934492;29;20211;-82
2023/05/29 13:20:45;;;;;;;6.90;5.10;;;;;31.30;96823.00;;;;4939190;29;20267;-81
2023/05/29 13:23:34;;;;;;;7.63;4.93;;;;;30.90;96825.00;;;;4933805;29;20247;-81
2023/05/29 13:26:23;;;;;;;5.75;4.65;;;;;30.90;96823.00;;;;4937493;29;20207;-81
2023/05/29 13:29:12;;;;;;;6.18;4.55;;;;;30.60;96819.00;;;;4935656;29;20207;-80
2023/05/29 13:32:02;;;;;;;5.40;4.78;;;;;30.20;96819.00;;;;4937810;29;20224;-81
2023/05/29 13:34:51;;;;;;;5.80;4.23;;;;;28.60;96794.00;;;;4934984;29;20201;-81
2023/05/29 13:37:43;;;;;;;6.70;4.20;;;;;29.20;96811.00;;;;4935333;29;20213;-80
2023/05/29 13:40:32;;;;;;;7.97;4.90;;;;;29.30;96808.00;;;;4935601;29;20240;-80
2023/05/29 13:43:21;;;;;;;5.60;4.37;;;;;29.40;96804.00;;;;4932612;29;20223;-81
2023/05/29 13:46:12;;;;;;;7.20;4.67;;;;;29.20;96799.00;;;;4937338;28;20591;-80
2023/05/29 13:49:01;;;;;;;7.27;4.93;;;;;28.80;96795.00;;;;4923950;29;20271;-80
2023/05/29 13:51:50;;;;;;;9.40;5.20;;;;;28.40;96798.00;;;;4934851;29;20379;-80
2023/05/29 13:54:41;;;;;;;5.70;4.77;;;;;26.60;96789.00;;;;4932069;29;20240;-80
2023/05/29 13:57:30;;;;;;;6.07;3.90;;;;;26.90;96787.00;;;;4929617;29;20208;-81
2023/05/29 14:00:20;;;;;;;9.57;4.93;;;;;27.50;96788.00;;;;4926979;29;20614;-80
2023/05/29 14:03:09;;;;;;;7.83;4.90;;;;;27.70;96790.00;;;;4923191;29;20211;-81
2023/05/29 14:05:59;;;;;;;8.10;4.37;;;;;27.50;96791.00;;;;4930566;29;20752;-80
2023/05/29 14:08:48;;;;;;;9.20;4.73;;;;;28.00;96797.00;;;;4934588;29;20216;-81
2023/05/29 14:11:38;;;;;;;6.20;4.60;;;;;28.10;96796.00;;;;4933816;29;20762;-80